Redwood National Park, CA

03:52 AM PST am 28. November 2014 (GMT -0800)
Walker Point | Change Station
CLOSE
Current Station
Persönliche Wetterstationen
Location: Bayside, CA
Höhe: 72 ft
Wetterstationen in der Umgebung

Höhe 72 ft 40.81 °N, 124.09 °W | Updated 2 minutes ago

Wolkig
Wolkig
59.5 °F
gefühlte 59.5 °F
N
1.6
Wind Wechselnd Wind aus Südost
Gusts 3.8 mph

Heute
Max. -- | schwach -- °F
--% Regenrisiko
Gestern
Max. -- | schwach -- °F
Precip. -- inch
7:18 AM 4:50 PM
Erstes Viertel, 39% visible
Druck 29.93 inch
Sichtweite 10.0 Meilen
Wolken Heiter
Taupunkt 37 °F
Feuchtigkeit 43%
Regen 0.00 inch
Schneehöhe Nicht verfügbar..
UV 0 von 12
Pollen 1.40 von 12
Luftqualität Nicht verfügbar..
Flu Activity Nicht verfügbar..
METAR KACV 281053Z AUTO 17006KT 10SM CLR 12/08 A2991 RMK AO2 SLP133 T01220083

More Conditions Fewer Conditions

Druck 29.93 inch
Sichtweite 10.0 Meilen
Wolken Heiter
Taupunkt 37 °F
Feuchtigkeit 43%
Regen 0.00 inch
Schneehöhe Nicht verfügbar..
UV 0 von 12
Pollen 1.40 von 12
Luftqualität Nicht verfügbar..
Flu Activity Nicht verfügbar..
METAR KACV 281053Z AUTO 17006KT 10SM CLR 12/08 A2991 RMK AO2 SLP133 T01220083

More Conditions Fewer Conditions

10-Day Weather Forecast

Almanac

Astronomie

Nov. 28, 2014 Aufgang Untergang
Genaue Zeit
Bürgerliche Dämmerung
Nautische Dämmerung
Astronomische Dämmerung
Mond
Länge des sichtbaren Lichts
Tageslänge
Tomorrow will be .
, % of the Moon is Illuminated

Heutige Rekorde

State Highs State Lows

Community

WunderPhotos

Upload Photos

1,774,198 Fotos hochgeladen!

WunderBlogs® & News

Nearby

Luftqualität

  Luftqualität LQ Index Schadstoff
Not available.

Schneehöhe

Station Depth Höhe

Erdbebenaktivität

Stadt Distance Mag. Time & Date
Minimum magnitude displayed is 2.5.

küstennahe Wassertemperaturen

Ort Temperatur

Wetterstationen in der Umgebung